KVNY/VNY METAR and TAF weather

Enter ICAO airport designator
Station Type Date Time Source
KVNY METAR 2019/08/19 07:51 UTC NOAA

KVNY 190751Z AUTO 11004KT 10SM CLR 19/16 A2991 RMK AO2 SLP119 T01890156 403060167


Station Type Date Time Source
KVNY Decoded METAR 2019/08/19 07:51 UTC NOAA

Station name not available
Aug 19, 2019 - 03:51 AM EDT / 2019.08.19 0751 UTC
Wind: from the ESE (110 degrees) at 5 MPH (4 KT):0
Visibility: 10 mile(s):0
Sky conditions: clear
Temperature: 66.0 F (18.9 C)
Dew Point: 60.1 F (15.6 C)
Relative Humidity: 81%
Pressure (altimeter): 29.91 in. Hg (1012 hPa)
ob: KVNY 190751Z AUTO 11004KT 10SM CLR 19/16 A2991 RMK AO2 SLP119 T01890156 403060167
cycle: 8

Station Type Date Time Source
KVNY TAF 2019/08/19 06:39 UTC NOAA

TAF KVNY 190537Z 1906/2006 VRB03KT P6SM SKC
FM191200 VRB03KT P6SM OVC011
FM191700 VRB03KT P6SM SKC
FM192000 14008KT P6SM SKC
FM200300 VRB03KT P6SM SKC

Example: see airport list